Time;durP1;ratioP1;P1;durP2;ratioP2;P2;SDS_P1;SDS_P2;PMS_P1;PMS_P2;Temp;Humidity;BMP_temperature;BMP_pressure;BME280_temperature;BME280_humidity;BME280_pressure;Samples;Min_cycle;Max_cycle;Signal;HPM_P1;HPM_P2
2021/06/29 00:02:05;;;;;;;9.18;8.27;;;21.60;99.90;;;;;;4902997;29;20225;-94
2021/06/29 00:04:31;;;;;;;9.45;8.55;;;21.50;99.90;;;;;;4903082;29;20174;-95
2021/06/29 00:06:56;;;;;;;13.32;10.27;;;21.50;99.90;;;;;;4903094;29;20197;-94
2021/06/29 00:09:23;;;;;;;10.13;8.80;;;21.40;99.90;;;;;;4903051;29;20642;-95
2021/06/29 00:11:49;;;;;;;13.90;10.40;;;21.40;99.90;;;;;;4902717;29;20240;-94
2021/06/29 00:14:15;;;;;;;9.98;8.98;;;21.40;99.90;;;;;;4902792;29;20670;-95
2021/06/29 00:16:40;;;;;;;12.00;9.15;;;21.40;99.90;;;;;;4919565;29;20643;-94
2021/06/29 00:19:06;;;;;;;9.82;8.82;;;21.40;99.90;;;;;;4902515;29;20218;-94
2021/06/29 00:21:32;;;;;;;9.50;8.65;;;21.40;99.90;;;;;;4919273;29;20181;-94
2021/06/29 00:23:58;;;;;;;11.35;8.75;;;21.30;99.90;;;;;;4902717;29;20261;-94
2021/06/29 00:26:23;;;;;;;11.70;10.38;;;21.30;99.90;;;;;;4902460;29;20222;-94
2021/06/29 00:28:49;;;;;;;11.48;9.65;;;21.30;99.90;;;;;;4902485;29;20191;-94
2021/06/29 00:31:16;;;;;;;11.13;10.02;;;21.20;99.90;;;;;;4902504;29;20226;-94
2021/06/29 00:33:42;;;;;;;10.60;9.57;;;21.30;99.90;;;;;;4902314;29;20195;-95
2021/06/29 00:36:14;;;;;;;11.02;8.73;;;21.30;99.90;;;;;;4902318;29;20171;-94
2021/06/29 00:38:40;;;;;;;11.23;9.65;;;21.20;99.90;;;;;;4902418;29;20202;-94
2021/06/29 00:41:06;;;;;;;9.70;8.50;;;21.20;99.90;;;;;;4902175;29;20222;-94
2021/06/29 00:43:31;;;;;;;10.15;9.15;;;21.10;99.90;;;;;;4902067;29;20214;-95
2021/06/29 00:45:57;;;;;;;9.30;8.32;;;21.10;99.90;;;;;;4902465;29;20206;-94
2021/06/29 00:48:23;;;;;;;9.07;7.90;;;21.10;99.90;;;;;;4901977;29;20205;-94
2021/06/29 00:50:49;;;;;;;8.73;7.90;;;21.00;99.90;;;;;;4901944;29;20278;-94
2021/06/29 00:53:15;;;;;;;8.32;7.47;;;21.00;99.90;;;;;;4901998;29;20199;-94
2021/06/29 00:55:42;;;;;;;8.38;7.57;;;21.00;99.90;;;;;;4902188;29;20190;-94
2021/06/29 00:58:09;;;;;;;10.20;7.70;;;21.00;99.90;;;;;;4901922;29;20190;-94
2021/06/29 01:00:36;;;;;;;12.07;8.52;;;21.00;99.90;;;;;;4901954;29;20265;-94
2021/06/29 01:03:03;;;;;;;8.10;7.40;;;20.90;99.90;;;;;;4901075;29;20201;-95
2021/06/29 01:05:29;;;;;;;10.90;7.97;;;20.90;99.90;;;;;;4902010;29;20266;-95
2021/06/29 01:07:55;;;;;;;8.80;7.90;;;20.90;99.90;;;;;;4901802;29;20203;-95
2021/06/29 01:10:22;;;;;;;9.23;8.25;;;20.90;99.90;;;;;;4918724;29;20156;-94
2021/06/29 01:12:48;;;;;;;12.90;8.55;;;20.80;99.90;;;;;;4901660;29;20208;-94
2021/06/29 01:15:14;;;;;;;11.88;7.78;;;20.80;99.90;;;;;;4902007;29;20258;-94
2021/06/29 01:17:40;;;;;;;11.20;8.15;;;20.70;99.90;;;;;;4901709;29;20170;-94
2021/06/29 01:20:09;;;;;;;11.88;8.30;;;20.70;99.90;;;;;;4901649;29;20179;-94
2021/06/29 01:22:35;;;;;;;16.30;8.10;;;20.70;99.90;;;;;;4917189;29;20214;-93
2021/06/29 01:25:01;;;;;;;13.80;8.52;;;20.70;99.90;;;;;;4901557;29;20179;-94
2021/06/29 01:27:42;;;;;;;9.43;8.40;;;20.70;99.90;;;;;;4901468;29;20209;-94
2021/06/29 01:32:54;;;;;;;11.95;8.27;;;20.60;99.90;;;;;;4917131;29;20297;-93
2021/06/29 01:35:20;;;;;;;14.10;8.95;;;20.50;99.90;;;;;;4901334;29;20249;-95
2021/06/29 01:37:46;;;;;;;14.45;8.80;;;20.50;99.90;;;;;;4901359;29;20245;-95
2021/06/29 01:40:17;;;;;;;12.95;8.40;;;20.50;99.90;;;;;;4901469;29;20203;-94
2021/06/29 01:42:43;;;;;;;13.98;8.30;;;20.50;99.90;;;;;;4901203;29;20606;-94
2021/06/29 01:45:09;;;;;;;13.25;8.63;;;20.50;99.90;;;;;;4901499;29;20198;-94
2021/06/29 01:50:15;;;;;;;14.35;8.23;;;20.60;99.90;;;;;;4917689;29;20292;-90
2021/06/29 01:52:42;;;;;;;13.95;7.95;;;20.70;99.90;;;;;;4900958;29;20655;-90
2021/06/29 01:55:09;;;;;;;14.02;7.65;;;20.80;99.90;;;;;;4901034;29;20179;-89
2021/06/29 01:57:36;;;;;;;19.70;7.47;;;21.00;99.90;;;;;;4901295;29;20273;-90
2021/06/29 02:00:07;;;;;;;13.57;6.22;;;21.10;99.90;;;;;;4901113;29;20178;-90
2021/06/29 02:02:33;;;;;;;18.40;6.82;;;20.90;99.90;;;;;;4900967;29;20211;-89
2021/06/29 02:04:58;;;;;;;9.95;6.10;;;20.90;99.90;;;;;;4900893;29;20182;-90
2021/06/29 02:07:24;;;;;;;9.00;5.60;;;20.80;99.90;;;;;;4900643;29;20574;-89
2021/06/29 02:10:00;;;;;;;5.88;4.65;;;20.80;99.90;;;;;;5242678;23;20247;-96
2021/06/29 02:12:25;;;;;;;5.10;4.22;;;20.80;99.90;;;;;;4970120;23;20715;-93
2021/06/29 02:14:51;;;;;;;6.05;4.07;;;20.80;99.90;;;;;;4954969;28;20176;-94
2021/06/29 02:17:17;;;;;;;8.02;3.90;;;20.80;99.90;;;;;;4958283;29;20189;-93
2021/06/29 02:19:43;;;;;;;7.88;3.60;;;20.90;99.90;;;;;;4958567;29;20185;-93
2021/06/29 02:22:09;;;;;;;7.35;3.35;;;20.90;99.90;;;;;;4965200;28;20197;-93
2021/06/29 02:24:34;;;;;;;5.47;3.30;;;21.00;99.90;;;;;;4978015;28;20181;-93
2021/06/29 02:27:01;;;;;;;11.52;3.03;;;20.90;99.90;;;;;;4978095;28;20181;-93
2021/06/29 02:29:27;;;;;;;6.00;3.33;;;21.00;99.90;;;;;;4977828;28;20243;-93
2021/06/29 02:31:53;;;;;;;4.30;2.85;;;21.00;99.90;;;;;;4977794;28;20664;-93
2021/06/29 02:34:19;;;;;;;5.60;3.10;;;21.00;99.90;;;;;;4977888;28;20263;-93
2021/06/29 02:36:44;;;;;;;4.00;3.05;;;21.00;99.90;;;;;;4977795;28;20690;-93
2021/06/29 02:39:10;;;;;;;4.82;2.92;;;21.00;99.90;;;;;;4977692;28;20180;-93
2021/06/29 02:41:36;;;;;;;6.72;3.00;;;21.00;99.90;;;;;;4977439;28;20250;-93
2021/06/29 02:44:02;;;;;;;8.05;3.00;;;21.00;99.90;;;;;;4977786;28;20176;-93
2021/06/29 02:46:28;;;;;;;4.72;2.88;;;21.00;99.90;;;;;;4977379;28;20180;-93
2021/06/29 02:48:56;;;;;;;7.85;3.10;;;20.90;99.90;;;;;;4977317;28;20212;-94
2021/06/29 02:51:23;;;;;;;7.65;2.70;;;20.90;99.90;;;;;;4977131;28;20169;-94
2021/06/29 02:53:49;;;;;;;7.18;2.58;;;20.90;99.90;;;;;;4977294;28;20164;-93
2021/06/29 02:56:56;;;;;;;9.73;2.67;;;20.80;99.90;;;;;;4977455;28;20643;-94
2021/06/29 02:59:04;;;;;;;3.70;2.50;;;20.90;99.90;;;;;;4975261;28;20184;-93
2021/06/29 03:01:30;;;;;;;3.08;2.20;;;20.90;99.90;;;;;;4977020;28;20173;-94
2021/06/29 03:03:56;;;;;;;7.18;2.30;;;20.80;99.90;;;;;;4977286;28;20180;-93
2021/06/29 03:06:22;;;;;;;7.10;2.60;;;20.80;99.90;;;;;;4977038;28;20203;-94
2021/06/29 03:08:47;;;;;;;5.57;2.58;;;20.90;99.90;;;;;;4976801;28;20200;-93
2021/06/29 03:11:13;;;;;;;8.02;2.60;;;20.80;99.90;;;;;;4976881;28;20173;-93
2021/06/29 03:13:39;;;;;;;3.17;2.15;;;20.80;99.90;;;;;;4991106;28;20228;-93
2021/06/29 03:16:07;;;;;;;4.00;2.10;;;20.80;99.90;;;;;;4992770;28;20177;-93
2021/06/29 03:18:34;;;;;;;3.83;2.05;;;20.80;99.90;;;;;;4993013;28;20200;-93
2021/06/29 03:21:00;;;;;;;8.70;2.33;;;20.90;99.90;;;;;;4992982;28;20550;-93
2021/06/29 03:23:25;;;;;;;5.30;1.98;;;20.80;99.90;;;;;;4992924;28;20204;-93
2021/06/29 03:25:51;;;;;;;3.33;1.95;;;20.80;99.90;;;;;;4992364;28;20227;-94
2021/06/29 03:28:17;;;;;;;6.05;1.95;;;20.90;99.90;;;;;;4992629;28;20673;-94
2021/06/29 03:30:43;;;;;;;5.53;2.13;;;20.80;99.90;;;;;;4992519;28;20219;-93
2021/06/29 03:33:09;;;;;;;4.55;2.15;;;20.80;99.90;;;;;;4992616;28;20196;-93
2021/06/29 03:35:35;;;;;;;3.85;2.00;;;20.80;99.90;;;;;;4992457;28;20177;-94
2021/06/29 03:38:02;;;;;;;4.90;2.28;;;20.80;99.90;;;;;;4992570;28;20181;-94
2021/06/29 03:40:28;;;;;;;5.28;2.10;;;20.80;99.90;;;;;;4992480;28;20231;-93
2021/06/29 03:42:54;;;;;;;3.55;2.00;;;20.80;99.90;;;;;;4992273;28;20208;-94
2021/06/29 03:45:20;;;;;;;3.42;1.88;;;20.80;99.90;;;;;;4992812;28;20267;-94
2021/06/29 03:47:45;;;;;;;4.13;2.20;;;20.80;99.90;;;;;;4992434;28;20204;-94
2021/06/29 03:50:11;;;;;;;5.75;2.00;;;20.80;99.90;;;;;;4992472;28;20169;-93
2021/06/29 03:52:37;;;;;;;3.42;2.03;;;20.80;99.90;;;;;;4992213;28;20251;-94
2021/06/29 03:55:05;;;;;;;2.08;1.70;;;20.80;99.90;;;;;;4992242;28;20633;-93
2021/06/29 03:57:32;;;;;;;5.97;2.00;;;20.80;99.90;;;;;;4976140;28;20172;-93
2021/06/29 03:59:58;;;;;;;2.22;1.52;;;20.80;99.90;;;;;;4976047;28;20187;-93
2021/06/29 04:02:24;;;;;;;5.53;1.70;;;20.80;99.90;;;;;;4976026;28;20196;-94
2021/06/29 04:04:50;;;;;;;3.75;1.85;;;20.80;99.90;;;;;;4976339;28;20192;-93
2021/06/29 04:07:17;;;;;;;2.40;1.80;;;20.80;99.90;;;;;;4976162;28;20247;-93
2021/06/29 04:09:42;;;;;;;4.75;1.60;;;20.80;99.90;;;;;;4975840;28;20169;-93
2021/06/29 04:12:10;;;;;;;4.82;2.03;;;20.70;99.90;;;;;;4975149;28;20231;-93
2021/06/29 04:14:36;;;;;;;2.90;1.60;;;20.70;99.90;;;;;;4974012;28;20177;-93
2021/06/29 04:17:02;;;;;;;3.58;1.90;;;20.70;99.90;;;;;;4974127;28;20172;-93
2021/06/29 04:19:27;;;;;;;2.70;1.75;;;20.60;99.90;;;;;;4974583;28;20201;-93
2021/06/29 04:21:53;;;;;;;4.53;2.30;;;20.70;99.90;;;;;;4975035;28;20207;-93
2021/06/29 04:24:19;;;;;;;4.40;1.77;;;20.70;99.90;;;;;;4975579;28;20208;-93
2021/06/29 04:26:46;;;;;;;3.17;1.65;;;20.80;99.90;;;;;;4975521;28;20224;-93
2021/06/29 04:29:11;;;;;;;4.75;1.70;;;20.80;99.90;;;;;;4975751;28;20204;-93
2021/06/29 04:31:37;;;;;;;3.22;1.63;;;20.80;99.90;;;;;;4975474;28;20260;-94
2021/06/29 04:34:03;;;;;;;2.55;1.75;;;20.80;99.90;;;;;;4975608;28;20169;-93
2021/06/29 04:36:29;;;;;;;3.00;2.08;;;20.80;99.90;;;;;;4975631;28;20168;-93
2021/06/29 04:38:55;;;;;;;3.40;1.83;;;20.90;99.90;;;;;;4974289;28;20377;-93
2021/06/29 04:41:20;;;;;;;2.83;1.70;;;20.80;99.90;;;;;;4975035;28;20260;-93
2021/06/29 04:43:46;;;;;;;2.53;1.70;;;20.80;99.90;;;;;;4975042;28;20181;-93
2021/06/29 04:46:13;;;;;;;4.10;1.98;;;20.80;99.90;;;;;;4975194;28;20176;-94
2021/06/29 04:48:41;;;;;;;6.15;1.83;;;20.70;99.90;;;;;;4974794;28;20220;-93
2021/06/29 04:51:08;;;;;;;3.33;1.70;;;20.70;99.90;;;;;;4975149;28;20169;-93
2021/06/29 04:53:34;;;;;;;1.83;1.60;;;20.70;99.90;;;;;;4974927;28;20200;-93
2021/06/29 04:56:00;;;;;;;3.92;1.75;;;20.70;99.90;;;;;;4975175;28;20579;-94
2021/06/29 04:58:26;;;;;;;3.90;1.92;;;20.70;99.90;;;;;;4975251;28;20289;-93
2021/06/29 05:00:51;;;;;;;2.38;1.60;;;20.70;99.90;;;;;;4975345;28;20652;-91
2021/06/29 05:03:18;;;;;;;6.25;1.80;;;20.70;99.90;;;;;;4974958;28;20204;-93
2021/06/29 05:05:44;;;;;;;3.22;1.70;;;20.70;99.90;;;;;;4975280;28;20256;-93
2021/06/29 05:08:13;;;;;;;3.97;1.90;;;20.70;99.90;;;;;;4974925;28;20611;-92
2021/06/29 05:10:39;;;;;;;4.22;1.88;;;20.60;99.90;;;;;;4975086;28;20690;-93
2021/06/29 05:13:05;;;;;;;3.92;1.80;;;20.70;99.90;;;;;;4975151;28;20359;-93
2021/06/29 05:15:30;;;;;;;3.40;1.98;;;20.70;99.90;;;;;;4974840;28;20175;-93
2021/06/29 05:17:57;;;;;;;3.10;1.63;;;20.70;99.90;;;;;;4974789;28;20223;-92
2021/06/29 05:20:23;;;;;;;3.58;2.17;;;20.70;99.90;;;;;;4973679;28;20175;-93
2021/06/29 05:22:49;;;;;;;3.70;1.85;;;20.80;99.90;;;;;;4974117;28;20201;-93
2021/06/29 05:25:15;;;;;;;3.22;2.20;;;20.80;99.90;;;;;;4974315;28;20203;-93
2021/06/29 05:27:42;;;;;;;2.60;1.88;;;20.80;99.90;;;;;;4974401;28;20664;-92
2021/06/29 05:30:09;;;;;;;5.43;2.10;;;20.80;99.90;;;;;;4974376;28;20161;-93
2021/06/29 05:32:35;;;;;;;4.93;2.03;;;20.80;99.90;;;;;;4974772;28;20231;-93
2021/06/29 05:35:01;;;;;;;4.00;2.25;;;20.80;99.90;;;;;;4974549;28;20173;-93
2021/06/29 05:37:27;;;;;;;2.63;1.80;;;20.80;99.90;;;;;;4974691;28;20179;-93
2021/06/29 05:39:53;;;;;;;5.13;2.35;;;20.80;99.90;;;;;;4974421;28;20177;-93
2021/06/29 05:42:19;;;;;;;3.22;2.03;;;20.70;99.90;;;;;;4974614;28;20200;-93
2021/06/29 05:44:44;;;;;;;3.97;2.20;;;20.70;99.90;;;;;;4974134;28;20180;-94
2021/06/29 05:47:15;;;;;;;3.97;2.53;;;20.60;99.90;;;;;;4965241;28;20169;-94
2021/06/29 05:49:41;;;;;;;7.97;2.45;;;20.60;99.90;;;;;;4955026;28;20157;-95
2021/06/29 05:52:06;;;;;;;5.85;2.22;;;20.60;99.90;;;;;;4956475;29;20724;-95
2021/06/29 05:54:32;;;;;;;3.30;2.15;;;20.50;99.90;;;;;;4955208;29;20197;-95
2021/06/29 05:56:58;;;;;;;5.03;2.20;;;20.50;99.90;;;;;;4955279;29;20166;-96
2021/06/29 05:59:24;;;;;;;3.42;2.35;;;20.50;99.90;;;;;;4955245;29;20248;-96
2021/06/29 06:01:52;;;;;;;3.33;2.20;;;20.40;99.90;;;;;;4955805;29;20225;-96
2021/06/29 06:04:18;;;;;;;7.03;2.35;;;20.40;99.90;;;;;;4959130;29;20165;-96
2021/06/29 06:06:46;;;;;;;4.05;2.42;;;20.30;99.90;;;;;;4962367;29;20173;-96
2021/06/29 06:09:12;;;;;;;3.60;2.40;;;20.30;99.90;;;;;;4960743;29;20227;-96
2021/06/29 06:11:38;;;;;;;4.90;2.67;;;20.20;99.90;;;;;;4959654;29;20172;-96
2021/06/29 06:14:07;;;;;;;7.45;2.75;;;20.20;99.90;;;;;;4928566;29;20256;-96
2021/06/29 06:16:34;;;;;;;4.38;2.90;;;20.20;99.90;;;;;;4948979;29;20201;-96
2021/06/29 06:19:01;;;;;;;4.60;3.17;;;20.10;99.90;;;;;;4952342;29;20197;-96
2021/06/29 06:21:27;;;;;;;7.50;3.05;;;20.10;99.90;;;;;;4953171;29;20169;-96
2021/06/29 06:24:00;;;;;;;4.35;2.80;;;20.20;99.90;;;;;;4956189;29;20166;-96
2021/06/29 06:26:37;;;;;;;8.13;2.58;;;20.10;99.90;;;;;;4949487;29;20177;-96
2021/06/29 06:29:18;;;;;;;5.18;2.80;;;20.20;99.90;;;;;;4955142;28;20222;-96
2021/06/29 06:32:13;;;;;;;4.68;2.85;;;20.20;99.90;;;;;;4941510;28;20236;-97
2021/06/29 06:34:53;;;;;;;6.28;2.90;;;20.20;99.90;;;;;;4954499;29;20216;-96
2021/06/29 06:37:23;;;;;;;8.10;3.10;;;20.20;99.90;;;;;;4954241;29;20196;-96
2021/06/29 06:39:49;;;;;;;3.88;3.10;;;20.20;99.90;;;;;;4961091;23;20624;-94
2021/06/29 06:42:16;;;;;;;4.70;3.20;;;20.20;99.90;;;;;;4936777;29;20202;-94
2021/06/29 06:44:43;;;;;;;4.95;3.00;;;20.20;99.90;;;;;;4920650;29;20625;-95
2021/06/29 06:47:10;;;;;;;3.13;2.55;;;20.20;99.90;;;;;;4921472;29;20562;-96
2021/06/29 06:49:36;;;;;;;8.50;3.10;;;20.30;99.90;;;;;;4937120;29;20640;-95
2021/06/29 06:52:04;;;;;;;5.18;3.00;;;20.30;99.90;;;;;;4937130;29;20178;-96
2021/06/29 06:54:33;;;;;;;6.72;2.80;;;20.20;99.90;;;;;;4939636;29;20269;-96
2021/06/29 06:57:04;;;;;;;7.22;2.58;;;20.20;99.90;;;;;;4938689;29;20236;-96
2021/06/29 06:59:32;;;;;;;5.53;2.28;;;20.20;99.90;;;;;;4937732;29;20187;-96
2021/06/29 07:01:59;;;;;;;2.70;2.22;;;20.20;99.90;;;;;;4940713;29;20201;-96
2021/06/29 07:04:28;;;;;;;6.43;3.10;;;20.20;99.90;;;;;;4940147;29;20236;-96
2021/06/29 07:06:54;;;;;;;5.50;2.92;;;20.10;99.90;;;;;;4942371;29;20346;-96
2021/06/29 07:09:21;;;;;;;6.60;2.75;;;20.10;99.90;;;;;;4943617;29;20221;-96
2021/06/29 07:11:48;;;;;;;5.53;2.78;;;20.10;99.90;;;;;;4946166;29;20233;-96
2021/06/29 07:14:15;;;;;;;3.67;2.83;;;20.10;99.90;;;;;;4943209;29;20276;-96
2021/06/29 07:16:41;;;;;;;5.80;3.30;;;20.10;99.90;;;;;;4940787;29;20594;-96
2021/06/29 07:19:07;;;;;;;4.78;3.35;;;20.10;99.90;;;;;;4942094;29;20523;-96
2021/06/29 07:21:34;;;;;;;3.88;2.90;;;20.00;99.90;;;;;;4941208;29;20189;-96
2021/06/29 07:24:00;;;;;;;4.15;3.25;;;20.00;99.90;;;;;;4941380;29;20186;-96
2021/06/29 07:26:26;;;;;;;4.15;3.17;;;20.00;99.90;;;;;;4941472;29;20174;-96
2021/06/29 07:28:54;;;;;;;5.90;3.67;;;20.00;99.90;;;;;;4939274;29;20214;-96
2021/06/29 07:31:19;;;;;;;8.18;3.70;;;20.00;99.90;;;;;;4938288;29;20515;-96
2021/06/29 07:33:46;;;;;;;12.50;4.03;;;20.00;99.90;;;;;;4939967;29;20269;-96
2021/06/29 07:36:15;;;;;;;6.93;3.40;;;19.90;99.90;;;;;;4941212;29;20170;-96
2021/06/29 07:38:44;;;;;;;6.97;3.97;;;20.00;99.90;;;;;;4937471;29;20238;-96
2021/06/29 07:41:13;;;;;;;4.78;3.58;;;20.00;99.90;;;;;;4909684;29;20620;-96
2021/06/29 07:43:55;;;;;;;4.00;3.60;;;20.00;99.90;;;;;;4914650;29;20189;-96
2021/06/29 07:46:21;;;;;;;5.07;3.55;;;20.00;99.90;;;;;;4918091;29;20170;-96
2021/06/29 07:48:50;;;;;;;4.50;3.85;;;20.00;99.90;;;;;;4911153;29;20214;-96
2021/06/29 07:51:19;;;;;;;5.18;3.90;;;20.00;99.90;;;;;;4912997;29;20241;-96
2021/06/29 07:53:46;;;;;;;4.65;4.13;;;20.10;99.90;;;;;;4926923;23;20327;-91
2021/06/29 07:56:16;;;;;;;6.45;3.80;;;20.10;99.90;;;;;;4959776;28;20173;-90
2021/06/29 07:58:43;;;;;;;4.95;3.88;;;20.20;99.90;;;;;;4960130;28;20652;-89
2021/06/29 08:01:11;;;;;;;6.95;3.92;;;20.20;99.90;;;;;;4960096;28;20187;-89
2021/06/29 08:03:37;;;;;;;5.57;3.80;;;20.30;99.90;;;;;;4956484;29;20201;-90
2021/06/29 08:06:03;;;;;;;5.00;4.35;;;20.20;99.90;;;;;;4940707;29;20177;-90
2021/06/29 08:08:29;;;;;;;7.72;4.18;;;20.20;99.90;;;;;;4940699;29;20204;-90
2021/06/29 08:10:56;;;;;;;4.57;4.18;;;20.20;99.90;;;;;;4941023;29;20172;-89
2021/06/29 08:13:22;;;;;;;5.88;3.83;;;20.20;99.90;;;;;;4940725;29;20695;-89
2021/06/29 08:15:47;;;;;;;8.05;4.78;;;20.30;99.90;;;;;;4940573;29;20161;-90
2021/06/29 08:18:16;;;;;;;10.73;4.63;;;20.20;99.90;;;;;;4940496;29;20184;-91
2021/06/29 08:20:42;;;;;;;5.25;4.10;;;20.10;99.90;;;;;;4940653;29;20181;-90
2021/06/29 08:23:09;;;;;;;4.75;4.28;;;20.20;99.90;;;;;;4940461;29;20202;-90
2021/06/29 08:25:35;;;;;;;4.93;4.00;;;20.20;99.90;;;;;;4940532;29;20170;-90
2021/06/29 08:28:01;;;;;;;7.90;4.40;;;20.20;99.90;;;;;;4939828;29;20680;-90
2021/06/29 08:30:27;;;;;;;7.15;4.68;;;20.20;99.90;;;;;;4940667;29;20221;-90
2021/06/29 08:32:53;;;;;;;7.25;4.65;;;20.30;99.90;;;;;;4940231;29;20197;-91
2021/06/29 08:35:19;;;;;;;6.18;4.78;;;20.20;99.90;;;;;;4940437;29;20170;-91
2021/06/29 08:37:45;;;;;;;5.60;4.90;;;20.30;99.90;;;;;;4940295;29;20298;-90
2021/06/29 08:40:13;;;;;;;6.03;4.63;;;20.30;99.90;;;;;;4940550;29;20541;-90
2021/06/29 08:42:40;;;;;;;6.38;4.72;;;20.40;99.90;;;;;;4940181;29;20208;-90
2021/06/29 08:45:11;;;;;;;6.43;4.90;;;20.40;99.90;;;;;;4939596;29;20169;-91
2021/06/29 08:47:38;;;;;;;6.72;4.68;;;20.40;99.90;;;;;;4940043;29;20193;-90
2021/06/29 08:50:07;;;;;;;820.88;61.97;;;20.50;99.90;;;;;;4939797;29;20312;-90
2021/06/29 08:52:33;;;;;;;1999.90;479.30;;;20.60;99.90;;;;;;4955324;29;20260;-91
2021/06/29 08:55:00;;;;;;;1999.90;448.90;;;20.60;99.90;;;;;;4965283;28;20228;-90
2021/06/29 08:57:55;;;;;;;1976.97;205.75;;;20.70;99.90;;;;;;4955754;29;20173;-90
2021/06/29 09:00:31;;;;;;;95.90;10.68;;;20.80;99.90;;;;;;4956016;29;20648;-90
2021/06/29 09:02:57;;;;;;;58.08;8.02;;;20.80;99.90;;;;;;4955686;29;20212;-90
2021/06/29 09:05:29;;;;;;;129.50;15.73;;;20.80;99.90;;;;;;4955764;29;20600;-90
2021/06/29 09:08:07;;;;;;;183.57;23.10;;;20.90;99.90;;;;;;4955624;29;20201;-90
2021/06/29 09:10:34;;;;;;;194.55;23.88;;;20.90;99.90;;;;;;4955749;29;20232;-90
2021/06/29 09:13:02;;;;;;;51.92;10.77;;;20.90;99.90;;;;;;4956060;29;20239;-91
2021/06/29 09:15:45;;;;;;;37.20;8.43;;;21.00;99.90;;;;;;4955663;29;20179;-92
2021/06/29 09:18:14;;;;;;;32.20;7.32;;;21.00;99.90;;;;;;4955489;29;20209;-92
2021/06/29 09:20:54;;;;;;;22.90;5.35;;;21.10;99.90;;;;;;4955492;29;20186;-91
2021/06/29 09:23:27;;;;;;;32.53;5.80;;;21.10;99.90;;;;;;4955368;28;20212;-92
2021/06/29 09:25:59;;;;;;;5.13;3.55;;;21.10;99.90;;;;;;4955628;29;20281;-92
2021/06/29 09:28:34;;;;;;;8.95;4.00;;;21.10;99.90;;;;;;4955358;29;20213;-92
2021/06/29 09:31:12;;;;;;;15.48;4.55;;;21.10;99.90;;;;;;4955575;29;20169;-92
2021/06/29 09:33:43;;;;;;;4.05;3.33;;;21.20;99.90;;;;;;4955793;29;20200;-92
2021/06/29 09:36:14;;;;;;;9.20;4.03;;;21.20;99.90;;;;;;4955435;29;20188;-92
2021/06/29 09:38:42;;;;;;;7.95;4.18;;;21.20;99.90;;;;;;4955513;29;20177;-92
2021/06/29 09:41:14;;;;;;;10.18;4.47;;;21.20;99.90;;;;;;4955245;29;20173;-91
2021/06/29 09:43:50;;;;;;;7.00;4.32;;;21.20;99.90;;;;;;4955205;29;20213;-91
2021/06/29 09:46:17;;;;;;;4.95;4.15;;;21.20;99.90;;;;;;4955141;29;20172;-90
2021/06/29 09:48:53;;;;;;;5.78;3.92;;;21.20;99.90;;;;;;4955221;29;20689;-90
2021/06/29 09:51:25;;;;;;;7.85;3.72;;;21.20;99.90;;;;;;4955069;29;20195;-91
2021/06/29 09:53:53;;;;;;;6.95;3.88;;;21.20;99.90;;;;;;4954172;29;20668;-90
2021/06/29 09:59:53;;;;;;;5.55;4.25;;;21.20;99.90;;;;;;4956484;29;20184;-90
2021/06/29 10:02:31;;;;;;;7.15;3.80;;;21.30;99.90;;;;;;4939036;29;20208;-91
2021/06/29 10:05:31;;;;;;;5.28;4.68;;;21.30;99.90;;;;;;4939202;29;20165;-91
2021/06/29 10:08:02;;;;;;;7.03;4.10;;;21.40;99.90;;;;;;4954996;29;20292;-90
2021/06/29 10:10:36;;;;;;;8.30;4.10;;;21.40;99.90;;;;;;4939061;29;20265;-90
2021/06/29 10:13:18;;;;;;;5.82;4.15;;;21.40;99.90;;;;;;4938957;29;20201;-91
2021/06/29 10:15:46;;;;;;;8.27;4.45;;;21.40;99.90;;;;;;4938484;29;20174;-93
2021/06/29 10:18:13;;;;;;;6.22;3.50;;;21.40;99.90;;;;;;4925599;29;20240;-92
2021/06/29 10:20:59;;;;;;;7.00;4.10;;;21.40;99.90;;;;;;4926471;28;20189;-92
2021/06/29 10:23:37;;;;;;;8.43;3.17;;;21.40;99.90;;;;;;4935767;28;20221;-92
2021/06/29 10:26:05;;;;;;;5.50;3.25;;;21.50;99.90;;;;;;4953266;29;20267;-92
2021/06/29 10:28:33;;;;;;;4.63;3.70;;;21.50;99.90;;;;;;4917546;28;20236;-95
2021/06/29 10:30:59;;;;;;;8.30;3.65;;;21.50;99.90;;;;;;4952887;28;20272;-92
2021/06/29 10:33:37;;;;;;;5.68;3.67;;;21.50;99.90;;;;;;4938782;29;20205;-92
2021/06/29 10:36:08;;;;;;;5.53;3.50;;;21.50;99.90;;;;;;4939801;29;20268;-92
2021/06/29 10:38:40;;;;;;;4.40;2.95;;;21.50;99.90;;;;;;4942676;29;20683;-92
2021/06/29 10:41:23;;;;;;;5.85;3.17;;;21.60;99.90;;;;;;4942826;29;20173;-93
2021/06/29 10:44:10;;;;;;;4.20;3.05;;;21.60;99.90;;;;;;4942947;29;20169;-93
2021/06/29 10:46:56;;;;;;;4.40;3.08;;;21.60;99.90;;;;;;4942672;29;20229;-93
2021/06/29 10:49:51;;;;;;;4.55;3.20;;;21.60;99.90;;;;;;4942590;29;20201;-94
2021/06/29 10:52:42;;;;;;;3.55;3.25;;;21.60;99.90;;;;;;4958935;29;20232;-93
2021/06/29 10:58:52;;;;;;;7.82;3.30;;;21.60;99.90;;;;;;4940509;29;20186;-93
2021/06/29 11:01:31;;;;;;;6.63;3.40;;;21.60;99.90;;;;;;4955144;29;20240;-93
2021/06/29 11:04:02;;;;;;;4.10;3.38;;;21.70;99.90;;;;;;4955635;29;20201;-92
2021/06/29 11:06:47;;;;;;;4.72;3.30;;;21.70;99.90;;;;;;4955044;29;20178;-93
2021/06/29 11:09:21;;;;;;;5.25;3.67;;;21.80;99.90;;;;;;4954864;29;20206;-93
2021/06/29 11:12:24;;;;;;;5.88;3.25;;;21.90;99.90;;;;;;4954933;29;20197;-93
2021/06/29 11:14:52;;;;;;;5.78;2.28;;;22.00;99.90;;;;;;4955057;29;20177;-93
2021/06/29 11:17:18;;;;;;;2.75;2.20;;;22.10;99.90;;;;;;4954918;29;20213;-93
2021/06/29 11:20:03;;;;;;;2.45;2.25;;;22.20;99.90;;;;;;4954809;29;20639;-93
2021/06/29 11:23:01;;;;;;;4.78;2.45;;;22.20;99.90;;;;;;4955135;29;20208;-93
2021/06/29 11:25:41;;;;;;;4.47;2.50;;;22.20;99.90;;;;;;4958463;29;20182;-93
2021/06/29 11:28:08;;;;;;;4.75;3.70;;;22.30;99.90;;;;;;4959249;29;20206;-92
2021/06/29 11:30:56;;;;;;;3.60;2.95;;;22.40;99.90;;;;;;4954962;29;20182;-93
2021/06/29 11:33:40;;;;;;;4.63;3.42;;;22.40;99.90;;;;;;4955667;29;20744;-93
2021/06/29 11:36:30;;;;;;;7.18;5.45;;;22.50;99.90;;;;;;4954697;29;20261;-93
2021/06/29 11:38:57;;;;;;;8.95;7.03;;;22.70;99.90;;;;;;4954834;29;20599;-93
2021/06/29 11:41:33;;;;;;;11.68;9.45;;;22.80;99.90;;;;;;4954327;29;20178;-93
2021/06/29 11:44:18;;;;;;;11.65;6.88;;;23.00;99.90;;;;;;4954051;29;20181;-93
2021/06/29 11:47:07;;;;;;;12.55;9.30;;;23.10;99.90;;;;;;4937528;29;20217;-93
2021/06/29 11:49:53;;;;;;;6.15;5.22;;;23.20;99.90;;;;;;4954024;29;20202;-93
2021/06/29 11:52:43;;;;;;;7.32;5.38;;;23.20;99.90;;;;;;4954024;29;20193;-92
2021/06/29 11:55:17;;;;;;;6.75;5.22;;;23.30;99.90;;;;;;4965231;28;20232;-93
2021/06/29 11:57:54;;;;;;;9.30;5.80;;;23.40;99.90;;;;;;4956921;29;20652;-92
2021/06/29 12:00:32;;;;;;;10.38;6.20;;;23.50;99.90;;;;;;4956896;29;20184;-92
2021/06/29 12:03:07;;;;;;;8.23;6.35;;;23.60;99.90;;;;;;4956763;29;20205;-92
2021/06/29 12:05:36;;;;;;;9.45;6.40;;;23.60;99.90;;;;;;4956673;29;20278;-92
2021/06/29 12:08:07;;;;;;;8.80;6.95;;;23.80;99.90;;;;;;4946048;28;20213;-93
2021/06/29 12:10:35;;;;;;;7.03;6.30;;;23.90;99.90;;;;;;4952691;28;20276;-91
2021/06/29 12:13:04;;;;;;;8.82;6.25;;;24.10;99.90;;;;;;4936388;28;20239;-92
2021/06/29 12:15:34;;;;;;;9.15;6.32;;;24.30;99.90;;;;;;4962953;28;20230;-92
2021/06/29 12:18:06;;;;;;;8.68;6.20;;;24.20;99.90;;;;;;4962942;28;20743;-92
2021/06/29 12:20:39;;;;;;;6.03;5.45;;;24.20;99.90;;;;;;4969065;28;20197;-92
2021/06/29 12:23:11;;;;;;;6.35;4.95;;;24.10;99.90;;;;;;4945046;28;20260;-92
2021/06/29 12:25:46;;;;;;;7.88;5.10;;;24.10;99.90;;;;;;4968672;28;20185;-92
2021/06/29 12:28:17;;;;;;;6.32;5.60;;;24.00;99.90;;;;;;4944472;28;20232;-93
2021/06/29 12:30:48;;;;;;;12.13;5.07;;;24.00;99.90;;;;;;4968723;28;20193;-92
2021/06/29 12:33:17;;;;;;;7.97;4.82;;;24.00;99.90;;;;;;4961551;28;20224;-92
2021/06/29 12:35:46;;;;;;;9.32;4.82;;;24.00;99.90;;;;;;4954450;28;20268;-92
2021/06/29 12:38:18;;;;;;;7.43;4.53;;;24.00;99.90;;;;;;4961302;28;20327;-91
2021/06/29 12:40:47;;;;;;;7.13;4.80;;;24.00;99.90;;;;;;4952477;28;20185;-93
2021/06/29 12:43:22;;;;;;;8.38;4.72;;;24.00;99.90;;;;;;4961395;28;20295;-91
2021/06/29 12:45:50;;;;;;;9.00;4.43;;;24.00;99.90;;;;;;4950385;29;20218;-91
2021/06/29 12:48:17;;;;;;;9.85;4.50;;;24.00;99.90;;;;;;4950887;28;20221;-91
2021/06/29 12:51:02;;;;;;;6.47;4.10;;;24.00;99.90;;;;;;4962668;28;20336;-91
2021/06/29 12:53:29;;;;;;;7.03;3.25;;;23.90;99.90;;;;;;4946970;28;20697;-91
2021/06/29 12:56:07;;;;;;;4.57;3.10;;;23.80;99.90;;;;;;4966832;28;20232;-91
2021/06/29 12:58:34;;;;;;;6.70;3.67;;;23.70;99.90;;;;;;4945945;28;20725;-91
2021/06/29 13:01:00;;;;;;;4.50;3.40;;;23.70;99.90;;;;;;4971846;28;20196;-91
2021/06/29 13:03:27;;;;;;;6.50;3.75;;;23.70;99.90;;;;;;4970709;28;20212;-90
2021/06/29 13:06:15;;;;;;;6.25;4.10;;;23.70;99.90;;;;;;4971831;28;20268;-91
2021/06/29 13:08:42;;;;;;;7.05;4.00;;;23.70;99.90;;;;;;4971760;28;20208;-91